sensor_id;sensor_type;location;lat;lon;timestamp;pressure;altitude;pressure_sealevel;temperature;humidity
23433;BME280;41331;45.412;10.992;2023-02-18T00:00:36;102254.50;;;6.56;100.00
23433;BME280;41331;45.412;10.992;2023-02-18T00:03:03;102253.72;;;6.60;100.00
23433;BME280;41331;45.412;10.992;2023-02-18T00:05:30;102249.91;;;6.56;100.00
23433;BME280;41331;45.412;10.992;2023-02-18T00:07:59;102247.47;;;6.55;100.00
23433;BME280;41331;45.412;10.992;2023-02-18T00:10:26;102246.66;;;6.54;100.00
23433;BME280;41331;45.412;10.992;2023-02-18T00:12:54;102249.81;;;6.46;100.00
23433;BME280;41331;45.412;10.992;2023-02-18T00:15:21;102248.94;;;6.40;100.00
23433;BME280;41331;45.412;10.992;2023-02-18T00:17:48;102249.97;;;6.34;100.00
23433;BME280;41331;45.412;10.992;2023-02-18T00:20:16;102242.78;;;6.45;100.00
23433;BME280;41331;45.412;10.992;2023-02-18T00:22:43;102236.34;;;6.51;100.00
23433;BME280;41331;45.412;10.992;2023-02-18T00:25:10;102248.53;;;6.54;100.00
23433;BME280;41331;45.412;10.992;2023-02-18T00:27:40;102244.44;;;6.51;100.00
23433;BME280;41331;45.412;10.992;2023-02-18T00:30:07;102238.13;;;6.40;100.00
23433;BME280;41331;45.412;10.992;2023-02-18T00:32:35;102243.31;;;6.47;100.00
23433;BME280;41331;45.412;10.992;2023-02-18T00:35:02;102242.19;;;6.38;100.00
23433;BME280;41331;45.412;10.992;2023-02-18T00:37:30;102239.16;;;6.34;100.00
23433;BME280;41331;45.412;10.992;2023-02-18T00:40:01;102245.13;;;6.36;100.00
23433;BME280;41331;45.412;10.992;2023-02-18T00:42:29;102249.13;;;6.29;100.00
23433;BME280;41331;45.412;10.992;2023-02-18T00:44:57;102253.66;;;6.23;100.00
23433;BME280;41331;45.412;10.992;2023-02-18T00:47:24;102252.53;;;6.19;100.00
23433;BME280;41331;45.412;10.992;2023-02-18T00:49:51;102250.69;;;6.25;100.00
23433;BME280;41331;45.412;10.992;2023-02-18T00:52:19;102246.09;;;6.25;100.00
23433;BME280;41331;45.412;10.992;2023-02-18T00:54:46;102242.84;;;6.23;100.00
23433;BME280;41331;45.412;10.992;2023-02-18T00:57:16;102249.34;;;6.27;100.00
23433;BME280;41331;45.412;10.992;2023-02-18T00:59:44;102242.25;;;6.21;100.00
23433;BME280;41331;45.412;10.992;2023-02-18T01:02:11;102247.16;;;6.24;100.00
23433;BME280;41331;45.412;10.992;2023-02-18T01:04:39;102245.13;;;6.09;100.00
23433;BME280;41331;45.412;10.992;2023-02-18T01:07:06;102248.63;;;6.10;100.00
23433;BME280;41331;45.412;10.992;2023-02-18T01:09:36;102239.44;;;6.11;100.00
23433;BME280;41331;45.412;10.992;2023-02-18T01:12:04;102236.44;;;6.07;100.00
23433;BME280;41331;45.412;10.992;2023-02-18T01:14:31;102241.91;;;6.12;100.00
23433;BME280;41331;45.412;10.992;2023-02-18T01:16:59;102240.16;;;6.01;100.00
23433;BME280;41331;45.412;10.992;2023-02-18T01:19:26;102239.88;;;5.97;100.00
23433;BME280;41331;45.412;10.992;2023-02-18T01:21:53;102234.97;;;5.94;100.00
23433;BME280;41331;45.412;10.992;2023-02-18T01:24:21;102241.34;;;5.88;100.00
23433;BME280;41331;45.412;10.992;2023-02-18T01:26:48;102237.13;;;5.76;100.00
23433;BME280;41331;45.412;10.992;2023-02-18T01:29:16;102224.56;;;5.64;100.00
23433;BME280;41331;45.412;10.992;2023-02-18T01:31:43;102225.31;;;5.60;100.00
23433;BME280;41331;45.412;10.992;2023-02-18T01:34:11;102230.25;;;5.63;100.00
23433;BME280;41331;45.412;10.992;2023-02-18T01:36:41;102229.66;;;5.39;100.00
23433;BME280;41331;45.412;10.992;2023-02-18T01:39:08;102231.47;;;5.33;100.00
23433;BME280;41331;45.412;10.992;2023-02-18T01:41:35;102225.00;;;5.34;100.00
23433;BME280;41331;45.412;10.992;2023-02-18T01:44:14;102226.06;;;5.33;100.00
23433;BME280;41331;45.412;10.992;2023-02-18T01:46:45;102217.09;;;5.28;100.00
23433;BME280;41331;45.412;10.992;2023-02-18T01:49:20;102226.22;;;5.27;100.00
23433;BME280;41331;45.412;10.992;2023-02-18T01:51:55;102223.31;;;5.28;100.00
23433;BME280;41331;45.412;10.992;2023-02-18T01:54:30;102222.03;;;5.36;100.00
23433;BME280;41331;45.412;10.992;2023-02-18T01:57:03;102215.41;;;5.43;100.00
23433;BME280;41331;45.412;10.992;2023-02-18T01:59:36;102216.41;;;5.37;100.00
23433;BME280;41331;45.412;10.992;2023-02-18T02:02:07;102218.91;;;5.44;100.00
23433;BME280;41331;45.412;10.992;2023-02-18T02:04:37;102214.66;;;5.48;100.00
23433;BME280;41331;45.412;10.992;2023-02-18T02:07:08;102212.19;;;5.46;100.00
23433;BME280;41331;45.412;10.992;2023-02-18T02:09:37;102220.66;;;5.33;100.00
23433;BME280;41331;45.412;10.992;2023-02-18T02:27:03;102222.50;;;5.28;100.00
23433;BME280;41331;45.412;10.992;2023-02-18T02:29:56;102218.31;;;5.20;100.00
23433;BME280;41331;45.412;10.992;2023-02-18T02:37:48;102214.72;;;5.14;100.00
23433;BME280;41331;45.412;10.992;2023-02-18T02:40:37;102206.00;;;5.07;100.00
23433;BME280;41331;45.412;10.992;2023-02-18T02:46:09;102196.50;;;5.05;100.00
23433;BME280;41331;45.412;10.992;2023-02-18T02:51:32;102199.53;;;5.08;100.00
23433;BME280;41331;45.412;10.992;2023-02-18T02:54:23;102197.69;;;4.92;100.00
23433;BME280;41331;45.412;10.992;2023-02-18T02:57:53;102192.59;;;4.96;100.00
23433;BME280;41331;45.412;10.992;2023-02-18T03:00:06;102178.53;;;4.77;100.00
23433;BME280;41331;45.412;10.992;2023-02-18T03:08:40;102189.50;;;4.87;100.00
23433;BME280;41331;45.412;10.992;2023-02-18T03:11:14;102189.09;;;4.95;100.00
23433;BME280;41331;45.412;10.992;2023-02-18T03:16:47;102176.50;;;4.84;100.00
23433;BME280;41331;45.412;10.992;2023-02-18T03:19:28;102190.88;;;4.89;100.00
23433;BME280;41331;45.412;10.992;2023-02-18T03:22:24;102180.34;;;4.88;100.00
23433;BME280;41331;45.412;10.992;2023-02-18T03:24:55;102170.97;;;4.74;100.00
23433;BME280;41331;45.412;10.992;2023-02-18T03:27:26;102173.69;;;4.57;100.00
23433;BME280;41331;45.412;10.992;2023-02-18T03:30:04;102184.88;;;4.32;100.00
23433;BME280;41331;45.412;10.992;2023-02-18T03:32:35;102188.38;;;4.32;100.00
23433;BME280;41331;45.412;10.992;2023-02-18T03:35:14;102182.38;;;4.30;100.00
23433;BME280;41331;45.412;10.992;2023-02-18T03:37:57;102186.78;;;4.20;100.00
23433;BME280;41331;45.412;10.992;2023-02-18T03:40:32;102185.00;;;4.25;100.00
23433;BME280;41331;45.412;10.992;2023-02-18T03:43:00;102179.59;;;4.25;100.00
23433;BME280;41331;45.412;10.992;2023-02-18T03:45:28;102183.19;;;4.14;100.00
23433;BME280;41331;45.412;10.992;2023-02-18T03:47:56;102177.34;;;4.51;100.00
23433;BME280;41331;45.412;10.992;2023-02-18T03:50:23;102181.28;;;4.43;100.00
23433;BME280;41331;45.412;10.992;2023-02-18T03:52:51;102189.06;;;4.11;100.00
23433;BME280;41331;45.412;10.992;2023-02-18T03:55:19;102190.63;;;4.07;100.00
23433;BME280;41331;45.412;10.992;2023-02-18T03:57:47;102181.59;;;4.01;100.00
23433;BME280;41331;45.412;10.992;2023-02-18T04:00:14;102185.22;;;4.07;100.00
23433;BME280;41331;45.412;10.992;2023-02-18T04:02:42;102187.34;;;4.05;100.00
23433;BME280;41331;45.412;10.992;2023-02-18T04:05:09;102190.47;;;4.13;100.00
23433;BME280;41331;45.412;10.992;2023-02-18T04:07:37;102182.31;;;4.25;100.00
23433;BME280;41331;45.412;10.992;2023-02-18T04:10:05;102173.28;;;4.03;100.00
23433;BME280;41331;45.412;10.992;2023-02-18T04:12:33;102180.13;;;4.22;100.00
23433;BME280;41331;45.412;10.992;2023-02-18T04:15:00;102180.88;;;4.06;100.00
23433;BME280;41331;45.412;10.992;2023-02-18T04:17:28;102186.25;;;4.06;100.00
23433;BME280;41331;45.412;10.992;2023-02-18T04:19:55;102192.63;;;4.00;100.00
23433;BME280;41331;45.412;10.992;2023-02-18T04:22:22;102189.47;;;4.03;100.00
23433;BME280;41331;45.412;10.992;2023-02-18T04:24:50;102188.78;;;3.96;100.00
23433;BME280;41331;45.412;10.992;2023-02-18T04:27:17;102190.44;;;3.97;100.00
23433;BME280;41331;45.412;10.992;2023-02-18T04:29:44;102196.00;;;4.07;100.00
23433;BME280;41331;45.412;10.992;2023-02-18T04:32:12;102199.59;;;3.84;100.00
23433;BME280;41331;45.412;10.992;2023-02-18T04:34:39;102203.69;;;3.86;100.00
23433;BME280;41331;45.412;10.992;2023-02-18T04:37:06;102198.63;;;3.90;100.00
23433;BME280;41331;45.412;10.992;2023-02-18T04:39:34;102204.84;;;3.90;100.00
23433;BME280;41331;45.412;10.992;2023-02-18T04:42:01;102200.38;;;3.96;100.00
23433;BME280;41331;45.412;10.992;2023-02-18T04:44:36;102196.75;;;3.90;100.00
23433;BME280;41331;45.412;10.992;2023-02-18T04:47:07;102207.03;;;3.77;100.00
23433;BME280;41331;45.412;10.992;2023-02-18T04:49:34;102207.97;;;3.71;100.00
23433;BME280;41331;45.412;10.992;2023-02-18T04:52:02;102201.38;;;3.78;100.00
23433;BME280;41331;45.412;10.992;2023-02-18T04:54:29;102199.91;;;3.59;100.00
23433;BME280;41331;45.412;10.992;2023-02-18T04:56:57;102208.16;;;3.81;100.00
23433;BME280;41331;45.412;10.992;2023-02-18T04:59:24;102209.88;;;3.58;100.00
23433;BME280;41331;45.412;10.992;2023-02-18T05:01:54;102204.59;;;3.63;100.00
23433;BME280;41331;45.412;10.992;2023-02-18T05:04:21;102210.09;;;3.69;100.00
23433;BME280;41331;45.412;10.992;2023-02-18T05:06:49;102217.72;;;3.60;100.00
23433;BME280;41331;45.412;10.992;2023-02-18T05:09:16;102213.63;;;3.57;100.00
23433;BME280;41331;45.412;10.992;2023-02-18T05:11:44;102212.22;;;3.55;100.00
23433;BME280;41331;45.412;10.992;2023-02-18T05:14:12;102218.53;;;3.60;100.00
23433;BME280;41331;45.412;10.992;2023-02-18T05:16:41;102223.78;;;3.67;100.00
23433;BME280;41331;45.412;10.992;2023-02-18T05:19:12;102217.34;;;3.68;100.00
23433;BME280;41331;45.412;10.992;2023-02-18T05:21:40;102222.75;;;3.56;100.00
23433;BME280;41331;45.412;10.992;2023-02-18T05:24:08;102206.03;;;3.54;100.00
23433;BME280;41331;45.412;10.992;2023-02-18T05:26:36;102209.41;;;3.61;100.00
23433;BME280;41331;45.412;10.992;2023-02-18T05:29:03;102207.84;;;3.66;100.00
23433;BME280;41331;45.412;10.992;2023-02-18T05:31:31;102214.34;;;3.53;100.00
23433;BME280;41331;45.412;10.992;2023-02-18T05:33:59;102199.47;;;3.50;100.00
23433;BME280;41331;45.412;10.992;2023-02-18T05:36:26;102208.66;;;3.66;100.00
23433;BME280;41331;45.412;10.992;2023-02-18T05:38:54;102210.53;;;3.66;100.00
23433;BME280;41331;45.412;10.992;2023-02-18T05:41:21;102215.56;;;3.74;100.00
23433;BME280;41331;45.412;10.992;2023-02-18T05:43:49;102221.06;;;3.79;100.00
23433;BME280;41331;45.412;10.992;2023-02-18T05:46:35;102227.41;;;3.73;100.00
23433;BME280;41331;45.412;10.992;2023-02-18T05:49:02;102223.28;;;3.70;100.00
23433;BME280;41331;45.412;10.992;2023-02-18T05:51:29;102218.16;;;3.69;100.00
23433;BME280;41331;45.412;10.992;2023-02-18T05:53:57;102220.84;;;3.69;100.00
23433;BME280;41331;45.412;10.992;2023-02-18T05:56:24;102216.75;;;3.66;100.00
23433;BME280;41331;45.412;10.992;2023-02-18T05:58:52;102228.25;;;3.50;100.00
23433;BME280;41331;45.412;10.992;2023-02-18T06:01:19;102234.84;;;3.42;100.00
23433;BME280;41331;45.412;10.992;2023-02-18T06:03:46;102236.50;;;3.31;100.00
23433;BME280;41331;45.412;10.992;2023-02-18T06:06:14;102235.19;;;3.34;100.00
23433;BME280;41331;45.412;10.992;2023-02-18T06:08:41;102237.66;;;3.35;100.00
23433;BME280;41331;45.412;10.992;2023-02-18T06:11:11;102242.00;;;3.36;100.00
23433;BME280;41331;45.412;10.992;2023-02-18T06:13:38;102240.56;;;3.46;100.00
23433;BME280;41331;45.412;10.992;2023-02-18T06:16:05;102235.66;;;3.43;100.00
23433;BME280;41331;45.412;10.992;2023-02-18T06:18:33;102245.97;;;3.34;100.00
23433;BME280;41331;45.412;10.992;2023-02-18T06:21:01;102243.03;;;3.35;100.00
23433;BME280;41331;45.412;10.992;2023-02-18T06:23:28;102250.53;;;3.33;100.00
23433;BME280;41331;45.412;10.992;2023-02-18T06:25:56;102244.81;;;3.18;100.00
23433;BME280;41331;45.412;10.992;2023-02-18T06:28:23;102257.66;;;3.40;100.00
23433;BME280;41331;45.412;10.992;2023-02-18T06:30:50;102259.06;;;3.42;100.00
23433;BME280;41331;45.412;10.992;2023-02-18T06:33:18;102248.53;;;3.52;100.00
23433;BME280;41331;45.412;10.992;2023-02-18T06:35:54;102254.22;;;3.56;100.00
23433;BME280;41331;45.412;10.992;2023-02-18T06:38:21;102254.13;;;3.62;100.00
23433;BME280;41331;45.412;10.992;2023-02-18T06:40:49;102252.50;;;3.61;100.00
23433;BME280;41331;45.412;10.992;2023-02-18T06:43:17;102250.22;;;3.70;100.00
23433;BME280;41331;45.412;10.992;2023-02-18T06:45:45;102253.84;;;3.76;100.00
23433;BME280;41331;45.412;10.992;2023-02-18T06:48:13;102251.34;;;3.86;100.00
23433;BME280;41331;45.412;10.992;2023-02-18T06:50:41;102249.34;;;3.93;100.00
23433;BME280;41331;45.412;10.992;2023-02-18T06:53:09;102255.72;;;3.75;100.00
23433;BME280;41331;45.412;10.992;2023-02-18T06:55:37;102258.88;;;3.84;100.00
23433;BME280;41331;45.412;10.992;2023-02-18T06:58:05;102257.56;;;3.86;100.00
23433;BME280;41331;45.412;10.992;2023-02-18T07:00:32;102250.63;;;3.90;100.00
23433;BME280;41331;45.412;10.992;2023-02-18T07:02:59;102255.19;;;4.02;100.00
23433;BME280;41331;45.412;10.992;2023-02-18T07:05:27;102256.56;;;4.04;100.00
23433;BME280;41331;45.412;10.992;2023-02-18T07:07:54;102249.84;;;4.19;100.00
23433;BME280;41331;45.412;10.992;2023-02-18T07:10:22;102267.66;;;4.20;100.00
23433;BME280;41331;45.412;10.992;2023-02-18T07:12:49;102254.59;;;4.28;100.00
23433;BME280;41331;45.412;10.992;2023-02-18T07:15:17;102254.59;;;4.28;100.00
23433;BME280;41331;45.412;10.992;2023-02-18T07:17:47;102256.31;;;4.34;100.00
23433;BME280;41331;45.412;10.992;2023-02-18T07:20:14;102256.88;;;4.36;100.00
23433;BME280;41331;45.412;10.992;2023-02-18T07:22:42;102250.06;;;4.46;100.00
23433;BME280;41331;45.412;10.992;2023-02-18T07:25:09;102254.38;;;4.47;100.00
23433;BME280;41331;45.412;10.992;2023-02-18T07:27:36;102255.25;;;4.35;100.00
23433;BME280;41331;45.412;10.992;2023-02-18T07:30:04;102268.03;;;4.40;100.00
23433;BME280;41331;45.412;10.992;2023-02-18T07:32:32;102281.16;;;4.36;100.00
23433;BME280;41331;45.412;10.992;2023-02-18T07:35:00;102274.81;;;4.43;100.00
23433;BME280;41331;45.412;10.992;2023-02-18T07:37:27;102274.47;;;4.39;100.00
23433;BME280;41331;45.412;10.992;2023-02-18T07:39:55;102275.53;;;4.38;100.00
23433;BME280;41331;45.412;10.992;2023-02-18T07:42:23;102268.09;;;4.28;100.00
23433;BME280;41331;45.412;10.992;2023-02-18T07:44:50;102277.72;;;4.41;100.00
23433;BME280;41331;45.412;10.992;2023-02-18T07:47:17;102276.69;;;4.42;100.00
23433;BME280;41331;45.412;10.992;2023-02-18T07:49:46;102278.47;;;4.36;100.00
23433;BME280;41331;45.412;10.992;2023-02-18T07:52:14;102277.03;;;4.17;100.00
23433;BME280;41331;45.412;10.992;2023-02-18T07:54:42;102274.91;;;4.19;100.00
23433;BME280;41331;45.412;10.992;2023-02-18T07:57:09;102274.63;;;4.32;100.00
23433;BME280;41331;45.412;10.992;2023-02-18T07:59:37;102283.75;;;4.31;100.00
23433;BME280;41331;45.412;10.992;2023-02-18T08:02:04;102278.72;;;4.52;100.00
23433;BME280;41331;45.412;10.992;2023-02-18T08:04:33;102281.13;;;4.65;100.00
23433;BME280;41331;45.412;10.992;2023-02-18T08:07:01;102280.66;;;4.68;100.00
23433;BME280;41331;45.412;10.992;2023-02-18T08:09:28;102279.75;;;4.62;100.00
23433;BME280;41331;45.412;10.992;2023-02-18T08:11:55;102281.56;;;4.57;100.00
23433;BME280;41331;45.412;10.992;2023-02-18T08:14:24;102281.31;;;4.75;100.00
23433;BME280;41331;45.412;10.992;2023-02-18T08:16:51;102278.69;;;4.80;100.00
23433;BME280;41331;45.412;10.992;2023-02-18T08:19:19;102279.59;;;4.69;100.00
23433;BME280;41331;45.412;10.992;2023-02-18T08:21:46;102280.81;;;4.78;100.00
23433;BME280;41331;45.412;10.992;2023-02-18T08:24:14;102277.78;;;4.91;100.00
23433;BME280;41331;45.412;10.992;2023-02-18T08:26:41;102276.16;;;4.74;100.00
23433;BME280;41331;45.412;10.992;2023-02-18T08:29:26;102280.81;;;4.78;100.00
23433;BME280;41331;45.412;10.992;2023-02-18T08:31:53;102283.84;;;4.82;100.00
23433;BME280;41331;45.412;10.992;2023-02-18T08:34:23;102278.63;;;4.92;100.00
23433;BME280;41331;45.412;10.992;2023-02-18T08:36:50;102277.31;;;4.78;100.00
23433;BME280;41331;45.412;10.992;2023-02-18T08:39:18;102281.06;;;4.93;100.00
23433;BME280;41331;45.412;10.992;2023-02-18T08:41:45;102284.16;;;4.85;100.00
23433;BME280;41331;45.412;10.992;2023-02-18T08:44:12;102271.56;;;4.91;100.00
23433;BME280;41331;45.412;10.992;2023-02-18T08:46:40;102276.75;;;4.92;100.00
23433;BME280;41331;45.412;10.992;2023-02-18T08:49:08;102273.25;;;4.92;100.00
23433;BME280;41331;45.412;10.992;2023-02-18T08:51:35;102268.16;;;5.12;100.00
23433;BME280;41331;45.412;10.992;2023-02-18T08:54:03;102268.09;;;5.07;100.00
23433;BME280;41331;45.412;10.992;2023-02-18T08:56:33;102265.16;;;5.31;100.00
23433;BME280;41331;45.412;10.992;2023-02-18T08:59:00;102269.94;;;4.90;100.00
23433;BME280;41331;45.412;10.992;2023-02-18T09:01:28;102272.47;;;5.13;100.00
23433;BME280;41331;45.412;10.992;2023-02-18T09:03:55;102274.28;;;4.91;100.00
23433;BME280;41331;45.412;10.992;2023-02-18T09:06:23;102267.56;;;5.10;100.00
23433;BME280;41331;45.412;10.992;2023-02-18T09:08:50;102270.78;;;5.07;100.00
23433;BME280;41331;45.412;10.992;2023-02-18T09:11:18;102266.91;;;5.20;100.00
23433;BME280;41331;45.412;10.992;2023-02-18T09:13:46;102276.06;;;5.19;100.00
23433;BME280;41331;45.412;10.992;2023-02-18T09:16:16;102273.84;;;5.33;100.00
23433;BME280;41331;45.412;10.992;2023-02-18T09:18:52;102266.78;;;5.32;100.00
23433;BME280;41331;45.412;10.992;2023-02-18T09:21:19;102254.66;;;5.51;100.00
23433;BME280;41331;45.412;10.992;2023-02-18T09:23:47;102264.78;;;5.61;100.00
23433;BME280;41331;45.412;10.992;2023-02-18T09:26:15;102266.72;;;5.65;100.00
23433;BME280;41331;45.412;10.992;2023-02-18T09:28:44;102261.50;;;5.59;100.00
23433;BME280;41331;45.412;10.992;2023-02-18T09:31:17;102260.44;;;5.60;100.00
23433;BME280;41331;45.412;10.992;2023-02-18T09:33:49;102255.91;;;5.65;100.00
23433;BME280;41331;45.412;10.992;2023-02-18T09:36:17;102254.78;;;5.61;100.00
23433;BME280;41331;45.412;10.992;2023-02-18T09:38:46;102262.41;;;5.64;100.00
23433;BME280;41331;45.412;10.992;2023-02-18T09:44:16;102258.34;;;5.67;100.00
23433;BME280;41331;45.412;10.992;2023-02-18T09:49:30;102259.81;;;5.53;100.00
23433;BME280;41331;45.412;10.992;2023-02-18T09:54:37;102250.63;;;5.92;100.00
23433;BME280;41331;45.412;10.992;2023-02-18T09:57:07;102244.53;;;6.07;100.00
23433;BME280;41331;45.412;10.992;2023-02-18T09:59:42;102248.69;;;6.15;100.00
23433;BME280;41331;45.412;10.992;2023-02-18T10:02:13;102243.44;;;6.03;100.00
23433;BME280;41331;45.412;10.992;2023-02-18T10:04:44;102246.47;;;6.12;100.00
23433;BME280;41331;45.412;10.992;2023-02-18T10:07:30;102247.13;;;5.97;100.00
23433;BME280;41331;45.412;10.992;2023-02-18T10:10:15;102249.78;;;6.14;100.00
23433;BME280;41331;45.412;10.992;2023-02-18T10:12:43;102245.59;;;6.28;100.00
23433;BME280;41331;45.412;10.992;2023-02-18T10:15:22;102250.28;;;6.38;100.00
23433;BME280;41331;45.412;10.992;2023-02-18T10:17:55;102244.66;;;6.44;100.00
23433;BME280;41331;45.412;10.992;2023-02-18T10:20:26;102245.78;;;6.48;100.00
23433;BME280;41331;45.412;10.992;2023-02-18T10:22:57;102237.91;;;6.47;100.00
23433;BME280;41331;45.412;10.992;2023-02-18T10:25:27;102248.09;;;6.67;100.00
23433;BME280;41331;45.412;10.992;2023-02-18T10:27:57;102245.09;;;6.63;100.00
23433;BME280;41331;45.412;10.992;2023-02-18T10:30:45;102240.03;;;6.72;100.00
23433;BME280;41331;45.412;10.992;2023-02-18T10:36:46;102230.97;;;6.88;100.00
23433;BME280;41331;45.412;10.992;2023-02-18T10:39:23;102231.91;;;6.72;100.00
23433;BME280;41331;45.412;10.992;2023-02-18T10:50:48;102226.56;;;6.82;100.00
23433;BME280;41331;45.412;10.992;2023-02-18T10:53:32;102225.31;;;6.95;100.00
23433;BME280;41331;45.412;10.992;2023-02-18T10:56:01;102216.41;;;6.99;100.00
23433;BME280;41331;45.412;10.992;2023-02-18T11:00:56;102218.53;;;6.92;100.00
23433;BME280;41331;45.412;10.992;2023-02-18T11:03:27;102213.44;;;7.01;100.00
23433;BME280;41331;45.412;10.992;2023-02-18T11:06:20;102201.59;;;7.12;100.00
23433;BME280;41331;45.412;10.992;2023-02-18T11:08:52;102196.72;;;7.09;100.00
23433;BME280;41331;45.412;10.992;2023-02-18T11:11:39;102188.41;;;7.26;100.00
23433;BME280;41331;45.412;10.992;2023-02-18T11:14:07;102183.81;;;7.26;100.00
23433;BME280;41331;45.412;10.992;2023-02-18T11:16:44;102187.09;;;7.29;100.00
23433;BME280;41331;45.412;10.992;2023-02-18T11:19:35;102183.00;;;7.26;100.00
23433;BME280;41331;45.412;10.992;2023-02-18T11:22:30;102174.06;;;7.25;100.00
23433;BME280;41331;45.412;10.992;2023-02-18T11:25:01;102180.00;;;7.27;100.00
23433;BME280;41331;45.412;10.992;2023-02-18T11:27:41;102169.44;;;7.21;100.00
23433;BME280;41331;45.412;10.992;2023-02-18T11:32:44;102170.91;;;7.44;100.00
23433;BME280;41331;45.412;10.992;2023-02-18T11:35:19;102166.41;;;7.80;100.00
23433;BME280;41331;45.412;10.992;2023-02-18T11:37:47;102158.03;;;7.97;100.00
23433;BME280;41331;45.412;10.992;2023-02-18T11:40:24;102145.81;;;7.89;100.00
23433;BME280;41331;45.412;10.992;2023-02-18T11:43:06;102141.78;;;8.12;100.00
23433;BME280;41331;45.412;10.992;2023-02-18T11:45:36;102139.34;;;8.16;100.00
23433;BME280;41331;45.412;10.992;2023-02-18T11:48:14;102137.22;;;8.48;100.00
23433;BME280;41331;45.412;10.992;2023-02-18T11:50:42;102130.66;;;8.70;100.00
23433;BME280;41331;45.412;10.992;2023-02-18T11:56:00;102126.06;;;8.09;100.00
23433;BME280;41331;45.412;10.992;2023-02-18T11:58:36;102117.66;;;8.11;100.00
23433;BME280;41331;45.412;10.992;2023-02-18T12:01:05;102112.22;;;8.26;100.00
23433;BME280;41331;45.412;10.992;2023-02-18T12:06:24;102117.13;;;8.39;100.00
23433;BME280;41331;45.412;10.992;2023-02-18T12:09:02;102107.38;;;8.48;100.00
23433;BME280;41331;45.412;10.992;2023-02-18T12:11:40;102103.25;;;8.71;100.00
23433;BME280;41331;45.412;10.992;2023-02-18T12:14:15;102101.53;;;8.96;100.00
23433;BME280;41331;45.412;10.992;2023-02-18T12:20:06;102090.34;;;9.13;100.00
23433;BME280;41331;45.412;10.992;2023-02-18T12:31:04;102065.38;;;9.11;100.00
23433;BME280;41331;45.412;10.992;2023-02-18T12:34:25;102063.22;;;9.57;100.00
23433;BME280;41331;45.412;10.992;2023-02-18T12:36:42;102062.53;;;9.36;100.00
23433;BME280;41331;45.412;10.992;2023-02-18T12:39:26;102054.00;;;9.53;100.00
23433;BME280;41331;45.412;10.992;2023-02-18T12:42:46;102057.78;;;9.57;100.00
23433;BME280;41331;45.412;10.992;2023-02-18T12:53:42;102041.88;;;10.08;100.00
23433;BME280;41331;45.412;10.992;2023-02-18T13:05:23;102014.47;;;10.58;100.00
23433;BME280;41331;45.412;10.992;2023-02-18T13:08:02;102021.53;;;10.35;100.00
23433;BME280;41331;45.412;10.992;2023-02-18T13:13:16;102004.53;;;10.91;100.00
23433;BME280;41331;45.412;10.992;2023-02-18T13:15:51;102002.06;;;10.95;100.00
23433;BME280;41331;45.412;10.992;2023-02-18T13:18:34;101999.03;;;11.15;100.00
23433;BME280;41331;45.412;10.992;2023-02-18T13:21:05;101993.72;;;11.24;100.00
23433;BME280;41331;45.412;10.992;2023-02-18T13:23:44;101992.09;;;11.04;100.00
23433;BME280;41331;45.412;10.992;2023-02-18T13:26:15;101980.63;;;11.26;100.00
23433;BME280;41331;45.412;10.992;2023-02-18T13:29:21;101990.94;;;11.10;100.00
23433;BME280;41331;45.412;10.992;2023-02-18T13:35:05;101977.59;;;11.08;100.00
23433;BME280;41331;45.412;10.992;2023-02-18T13:40:40;101967.66;;;11.36;100.00
23433;BME280;41331;45.412;10.992;2023-02-18T13:51:40;101957.28;;;11.20;99.06
23433;BME280;41331;45.412;10.992;2023-02-18T14:04:53;101939.53;;;11.22;97.96
23433;BME280;41331;45.412;10.992;2023-02-18T14:10:04;101939.28;;;11.19;99.58
23433;BME280;41331;45.412;10.992;2023-02-18T14:15:45;101939.06;;;11.34;96.79
23433;BME280;41331;45.412;10.992;2023-02-18T14:26:02;101918.41;;;11.47;98.40
23433;BME280;41331;45.412;10.992;2023-02-18T14:32:08;101919.56;;;11.08;98.45
23433;BME280;41331;45.412;10.992;2023-02-18T14:34:42;101913.13;;;11.36;97.69
23433;BME280;41331;45.412;10.992;2023-02-18T14:37:30;101908.50;;;11.18;97.41
23433;BME280;41331;45.412;10.992;2023-02-18T14:43:03;101901.19;;;11.32;98.69
23433;BME280;41331;45.412;10.992;2023-02-18T14:50:51;101887.97;;;11.26;98.65
23433;BME280;41331;45.412;10.992;2023-02-18T14:53:22;101879.09;;;11.34;97.50
23433;BME280;41331;45.412;10.992;2023-02-18T14:55:54;101882.69;;;11.15;97.57
23433;BME280;41331;45.412;10.992;2023-02-18T14:58:29;101890.78;;;11.02;98.77
23433;BME280;41331;45.412;10.992;2023-02-18T15:01:06;101881.16;;;10.91;100.00
23433;BME280;41331;45.412;10.992;2023-02-18T15:03:41;101877.91;;;10.88;100.00
23433;BME280;41331;45.412;10.992;2023-02-18T15:06:29;101884.91;;;10.95;100.00
23433;BME280;41331;45.412;10.992;2023-02-18T15:08:59;101883.13;;;11.04;100.00
23433;BME280;41331;45.412;10.992;2023-02-18T15:11:35;101877.81;;;10.94;100.00
23433;BME280;41331;45.412;10.992;2023-02-18T15:14:31;101879.25;;;10.91;100.00
23433;BME280;41331;45.412;10.992;2023-02-18T15:16:57;101887.09;;;10.74;100.00
23433;BME280;41331;45.412;10.992;2023-02-18T15:19:27;101884.22;;;10.84;100.00
23433;BME280;41331;45.412;10.992;2023-02-18T15:21:58;101884.44;;;10.69;100.00
23433;BME280;41331;45.412;10.992;2023-02-18T15:24:29;101882.84;;;10.68;100.00
23433;BME280;41331;45.412;10.992;2023-02-18T15:27:03;101884.53;;;10.82;100.00
23433;BME280;41331;45.412;10.992;2023-02-18T15:29:37;101881.66;;;10.93;100.00